Time;durP1;ratioP1;P1;durP2;ratioP2;P2;SDS_P1;SDS_P2;PMS_P1;PMS_P2;Temp;Humidity;BMP_temperature;BMP_pressure;BME280_temperature;BME280_humidity;BME280_pressure;Samples;Min_cycle;Max_cycle;Signal;HPM_P1;HPM_P2
2024/03/04 00:00:06;;;;;;;7.13;5.60;;;;;;;4.37;78.23;100508.59;5064471;28;20021;-67
2024/03/04 00:02:32;;;;;;;6.18;2.85;;;;;;;4.33;78.08;100499.97;5064609;28;20112;-68
2024/03/04 00:04:57;;;;;;;3.80;2.05;;;;;;;4.40;77.75;100503.53;5063439;28;20025;-68
2024/03/04 00:07:24;;;;;;;6.25;2.78;;;;;;;4.34;78.00;100513.69;5064360;28;20111;-68
2024/03/04 00:09:51;;;;;;;3.58;2.53;;;;;;;4.32;77.76;100489.66;5063208;28;20079;-68
2024/03/04 00:12:16;;;;;;;5.53;3.35;;;;;;;4.26;77.74;100495.56;5064568;28;20017;-68
2024/03/04 00:14:42;;;;;;;6.60;4.88;;;;;;;4.26;77.85;100504.97;5064387;28;20063;-69
2024/03/04 00:17:07;;;;;;;4.15;3.75;;;;;;;4.32;77.53;100502.50;5064608;28;20036;-69
2024/03/04 00:19:33;;;;;;;3.45;2.78;;;;;;;4.43;76.36;100500.13;5064572;28;20021;-69
2024/03/04 00:21:58;;;;;;;11.15;6.45;;;;;;;4.26;77.13;100505.84;5064582;28;20017;-68
2024/03/04 00:24:24;;;;;;;4.82;2.53;;;;;;;4.17;77.37;100493.66;5062761;28;20108;-68
2024/03/04 00:26:50;;;;;;;1.17;0.85;;;;;;;4.20;77.27;100500.59;5064523;28;20029;-69
2024/03/04 00:29:15;;;;;;;11.65;3.90;;;;;;;4.14;77.50;100500.47;5063179;28;20033;-70
2024/03/04 00:31:41;;;;;;;11.43;4.90;;;;;;;4.17;77.32;100510.81;5065528;28;20495;-68
2024/03/04 00:34:06;;;;;;;5.35;3.42;;;;;;;4.09;77.85;100502.91;5068189;28;20025;-68
2024/03/04 00:36:32;;;;;;;4.68;4.25;;;;;;;4.06;77.68;100505.44;5068227;28;20025;-68
2024/03/04 00:38:57;;;;;;;4.90;2.40;;;;;;;4.04;77.75;100504.56;5067926;28;20021;-69
2024/03/04 00:41:26;;;;;;;4.85;4.43;;;;;;;4.07;77.67;100505.47;5068336;28;20036;-68
2024/03/04 00:43:53;;;;;;;8.25;5.20;;;;;;;4.11;77.45;100508.09;5068211;28;20076;-68
2024/03/04 00:46:19;;;;;;;4.18;1.52;;;;;;;4.16;77.36;100515.06;5068070;28;20029;-70
2024/03/04 00:48:45;;;;;;;4.63;3.08;;;;;;;4.15;77.18;100509.91;5067661;28;20040;-68
2024/03/04 00:51:15;;;;;;;6.82;2.65;;;;;;;4.14;77.20;100508.19;5068070;28;20032;-68
2024/03/04 00:53:44;;;;;;;9.13;4.22;;;;;;;4.16;77.11;100509.06;5066503;28;20071;-68
2024/03/04 00:56:11;;;;;;;8.73;3.67;;;;;;;4.20;76.91;100506.56;5066448;28;20124;-68
2024/03/04 00:58:37;;;;;;;2.88;1.40;;;;;;;4.18;77.08;100508.28;5066249;28;20365;-68
2024/03/04 01:01:03;;;;;;;3.78;3.13;;;;;;;4.12;77.31;100513.25;5083293;28;20048;-69
2024/03/04 01:03:29;;;;;;;6.70;4.07;;;;;;;4.11;77.07;100498.69;5067740;28;20020;-69
2024/03/04 01:05:54;;;;;;;1.92;1.83;;;;;;;4.34;76.30;100514.53;5067610;28;20028;-69
2024/03/04 01:08:19;;;;;;;12.52;5.43;;;;;;;4.18;76.60;100515.09;5066249;28;20053;-68
2024/03/04 01:10:45;;;;;;;6.00;3.92;;;;;;;4.12;76.88;100515.81;5065935;28;20013;-68
2024/03/04 01:13:10;;;;;;;6.45;3.78;;;;;;;4.12;76.70;100510.69;5067653;28;20361;-68
2024/03/04 01:15:36;;;;;;;6.70;5.10;;;;;;;4.11;76.75;100519.25;5067449;28;20020;-69
2024/03/04 01:18:02;;;;;;;4.70;4.25;;;;;;;4.09;76.85;100521.78;5067397;28;20086;-69
2024/03/04 01:20:28;;;;;;;1.75;1.60;;;;;;;4.15;76.48;100525.31;5067387;28;20021;-69
2024/03/04 01:22:54;;;;;;;8.77;3.28;;;;;;;4.12;76.55;100517.56;5067243;28;20068;-68
2024/03/04 01:25:19;;;;;;;7.20;3.13;;;;;;;4.09;76.89;100518.34;5067332;28;20124;-69
2024/03/04 01:27:44;;;;;;;7.45;4.50;;;;;;;4.15;76.37;100523.63;5067316;28;20025;-69
2024/03/04 01:30:13;;;;;;;1.77;1.67;;;;;;;4.18;76.17;100531.41;5065920;28;20086;-70
2024/03/04 01:32:40;;;;;;;2.28;2.15;;;;;;;4.12;76.24;100528.69;5066998;28;20025;-68
2024/03/04 01:35:07;;;;;;;6.07;2.53;;;;;;;4.12;76.18;100532.97;5067163;28;20084;-68
2024/03/04 01:37:33;;;;;;;4.53;2.85;;;;;;;4.02;76.54;100530.22;5066763;28;20029;-69
2024/03/04 01:39:59;;;;;;;4.78;3.33;;;;;;;4.08;76.29;100540.63;5067003;28;20017;-68
2024/03/04 01:42:25;;;;;;;6.75;3.63;;;;;;;4.09;76.06;100532.06;5066551;28;20025;-67
2024/03/04 01:44:50;;;;;;;6.57;4.90;;;;;;;4.08;76.46;100532.03;5066911;28;20029;-68
2024/03/04 01:47:20;;;;;;;8.65;4.88;;;;;;;4.07;76.43;100523.44;5066921;28;20052;-68
2024/03/04 01:49:47;;;;;;;5.30;1.88;;;;;;;4.05;76.35;100525.13;5066761;28;20102;-69
2024/03/04 01:52:15;;;;;;;5.82;3.75;;;;;;;3.91;76.35;100506.00;5066720;28;20051;-69
2024/03/04 01:54:43;;;;;;;3.50;3.22;;;;;;;4.04;76.22;100525.09;5066496;28;20029;-70
2024/03/04 01:57:11;;;;;;;10.68;4.80;;;;;;;4.04;76.33;100533.66;5066382;28;20024;-69
2024/03/04 01:59:38;;;;;;;3.42;3.03;;;;;;;4.00;76.32;100528.44;5066461;28;20533;-68
2024/03/04 02:02:05;;;;;;;1.45;1.35;;;;;;;4.03;76.28;100536.19;5065495;28;20052;-69
2024/03/04 02:04:30;;;;;;;1.25;1.20;;;;;;;3.93;76.53;100535.16;5064966;28;20029;-71
2024/03/04 02:06:56;;;;;;;11.50;5.72;;;;;;;3.85;76.63;100524.69;5065080;28;20116;-69
2024/03/04 02:09:26;;;;;;;8.00;4.50;;;;;;;3.84;76.63;100533.25;5066246;28;20066;-69
2024/03/04 02:11:52;;;;;;;9.32;4.47;;;;;;;3.83;76.76;100529.81;5066643;28;20422;-69
2024/03/04 02:14:17;;;;;;;2.45;2.15;;;;;;;3.79;76.86;100529.72;5066188;28;20047;-69
2024/03/04 02:16:43;;;;;;;20.52;4.10;;;;;;;3.76;77.04;100524.50;5066328;28;20025;-68
2024/03/04 02:19:13;;;;;;;5.80;2.90;;;;;;;3.75;77.13;100540.75;5066237;28;20025;-68
2024/03/04 02:21:45;;;;;;;6.03;2.28;;;;;;;3.65;77.31;100525.16;5066209;28;20028;-68
2024/03/04 02:24:10;;;;;;;3.75;2.17;;;;;;;3.66;77.30;100537.16;5065976;28;20068;-69
2024/03/04 02:26:36;;;;;;;3.17;2.35;;;;;;;3.59;77.44;100528.44;5066246;28;20085;-69
2024/03/04 02:29:01;;;;;;;6.95;4.05;;;;;;;3.57;77.59;100547.22;5066104;28;20025;-69
2024/03/04 02:31:29;;;;;;;5.50;3.67;;;;;;;3.52;77.72;100538.53;5064836;28;20049;-69
2024/03/04 02:33:56;;;;;;;7.25;4.88;;;;;;;3.51;77.97;100540.25;5065868;28;20056;-68
2024/03/04 02:36:22;;;;;;;8.48;6.22;;;;;;;3.51;77.91;100541.94;5066032;28;20024;-68
2024/03/04 02:38:49;;;;;;;10.10;4.38;;;;;;;3.38;77.94;100525.41;5065706;28;20045;-70
2024/03/04 02:41:15;;;;;;;14.98;5.57;;;;;;;3.44;78.01;100549.50;5065739;28;20021;-68
2024/03/04 02:43:42;;;;;;;4.82;3.42;;;;;;;3.38;78.35;100554.50;5065951;28;20044;-69
2024/03/04 02:46:07;;;;;;;9.18;4.15;;;;;;;3.29;78.53;100544.03;5065946;28;20025;-69
2024/03/04 02:48:33;;;;;;;5.25;2.85;;;;;;;3.29;78.42;100554.28;5065385;28;20035;-69
2024/03/04 02:50:58;;;;;;;5.55;4.38;;;;;;;3.27;78.48;100543.09;5065967;28;20056;-69
2024/03/04 02:53:24;;;;;;;4.07;2.30;;;;;;;3.26;78.63;100549.09;5064258;28;20117;-68
2024/03/04 02:55:49;;;;;;;4.05;2.97;;;;;;;3.21;78.63;100552.38;5064844;28;20024;-69
2024/03/04 02:58:15;;;;;;;4.68;3.33;;;;;;;3.17;78.88;100558.28;5065421;28;20029;-69
2024/03/04 03:00:40;;;;;;;8.55;4.82;;;;;;;3.14;79.12;100557.34;5065622;28;20039;-69
2024/03/04 03:03:05;;;;;;;3.50;2.90;;;;;;;3.09;79.35;100570.06;5065560;28;20021;-69
2024/03/04 03:05:31;;;;;;;3.50;3.20;;;;;;;3.04;79.35;100556.22;5064298;28;20029;-69
2024/03/04 03:07:56;;;;;;;3.53;3.05;;;;;;;3.01;79.86;100567.28;5065221;28;20080;-69
2024/03/04 03:10:21;;;;;;;4.70;3.67;;;;;;;2.95;79.53;100562.00;5080688;28;20025;-69
2024/03/04 03:12:47;;;;;;;4.03;2.90;;;;;;;2.91;79.80;100557.63;5065539;28;20100;-69
2024/03/04 03:15:12;;;;;;;2.38;2.00;;;;;;;2.91;80.17;100557.63;5065357;28;20032;-69
2024/03/04 03:17:37;;;;;;;4.72;2.85;;;;;;;2.87;80.22;100574.66;5065433;28;20064;-69
2024/03/04 03:20:16;;;;;;;5.18;3.97;;;;;;;2.89;80.43;100572.13;5065337;28;20095;-69
2024/03/04 03:22:45;;;;;;;1.50;1.27;;;;;;;2.80;80.67;100570.16;5063994;28;20032;-68
2024/03/04 03:25:12;;;;;;;2.17;2.08;;;;;;;2.76;80.84;100569.25;5065177;28;20017;-69
2024/03/04 03:27:38;;;;;;;3.55;3.10;;;;;;;2.76;80.98;100570.91;5063851;28;20424;-69
2024/03/04 03:30:05;;;;;;;3.08;1.90;;;;;;;2.69;80.98;100563.06;5064643;28;20052;-69
2024/03/04 03:32:30;;;;;;;3.53;3.13;;;;;;;2.68;81.11;100563.91;5064891;28;20036;-69
2024/03/04 03:34:56;;;;;;;3.75;3.35;;;;;;;2.65;81.54;100570.66;5064970;28;20021;-69
2024/03/04 03:37:21;;;;;;;15.00;3.95;;;;;;;2.68;81.48;100579.28;5064945;28;20028;-69
2024/03/04 03:39:47;;;;;;;5.93;4.75;;;;;;;2.64;81.86;100574.00;5064754;28;20025;-69
2024/03/04 03:42:13;;;;;;;6.80;4.15;;;;;;;2.62;81.74;100565.44;5064896;28;20033;-68
2024/03/04 03:44:38;;;;;;;1.60;1.50;;;;;;;2.58;81.72;100578.16;5064840;28;20051;-69
2024/03/04 03:47:04;;;;;;;7.80;4.53;;;;;;;2.53;81.99;100578.84;5063620;28;20029;-69
2024/03/04 03:49:29;;;;;;;2.92;2.53;;;;;;;2.52;82.04;100570.31;5064545;28;20087;-69
2024/03/04 03:51:55;;;;;;;6.97;3.47;;;;;;;2.52;82.38;100587.38;5064945;28;20029;-68
2024/03/04 03:54:20;;;;;;;4.18;3.78;;;;;;;2.45;82.32;100576.09;5063325;28;20024;-69
2024/03/04 03:56:45;;;;;;;3.47;2.63;;;;;;;2.45;82.33;100583.78;5063583;28;20090;-69
2024/03/04 03:59:11;;;;;;;3.40;3.13;;;;;;;2.45;81.82;100581.22;5064696;28;20059;-69
2024/03/04 04:01:36;;;;;;;3.58;3.20;;;;;;;2.38;82.42;100592.13;5064766;28;20074;-69
2024/03/04 04:04:02;;;;;;;6.00;3.67;;;;;;;2.31;82.86;100591.06;5064494;28;20032;-68
2024/03/04 04:06:28;;;;;;;3.42;1.92;;;;;;;2.27;82.93;100581.56;5067132;28;20025;-68
2024/03/04 04:08:53;;;;;;;4.32;3.47;;;;;;;2.23;82.98;100590.84;5067199;28;20017;-68
2024/03/04 04:11:19;;;;;;;3.95;3.63;;;;;;;2.28;82.90;100614.03;5067334;28;20021;-68
2024/03/04 04:13:45;;;;;;;6.25;5.60;;;;;;;2.21;83.39;100600.19;5068894;28;20021;-69
2024/03/04 04:16:10;;;;;;;4.70;3.38;;;;;;;2.18;83.20;100608.66;5068949;28;20025;-69
2024/03/04 04:18:36;;;;;;;3.15;2.55;;;;;;;2.16;83.37;100601.72;5068607;28;20036;-69
2024/03/04 04:21:03;;;;;;;2.85;2.58;;;;;;;2.09;83.31;100610.94;5068841;28;20036;-69
2024/03/04 04:23:28;;;;;;;1.60;1.50;;;;;;;2.10;83.43;100616.13;5068707;28;20028;-69
2024/03/04 04:25:53;;;;;;;2.45;2.25;;;;;;;2.09;83.58;100621.19;5068622;28;20048;-69
2024/03/04 04:28:19;;;;;;;5.15;4.68;;;;;;;2.04;83.70;100622.75;5068703;28;20033;-68
2024/03/04 04:30:44;;;;;;;4.50;3.67;;;;;;;2.01;83.57;100613.28;5066818;28;20025;-69
2024/03/04 04:33:10;;;;;;;9.70;4.15;;;;;;;2.01;83.58;100633.78;5067107;28;20021;-69
2024/03/04 04:35:35;;;;;;;3.58;2.40;;;;;;;1.99;83.72;100625.16;5066953;28;20550;-68
2024/03/04 04:38:00;;;;;;;19.25;3.55;;;;;;;1.95;83.83;100629.31;5066755;28;20088;-67
2024/03/04 04:40:26;;;;;;;6.32;3.67;;;;;;;1.92;83.75;100621.53;5066729;28;20051;-69
2024/03/04 04:42:51;;;;;;;1.50;1.40;;;;;;;1.82;83.71;100619.53;5068234;28;20096;-69
2024/03/04 04:45:17;;;;;;;2.35;2.15;;;;;;;1.84;84.21;100629.00;5067943;28;20090;-68
2024/03/04 04:47:43;;;;;;;3.28;3.00;;;;;;;1.85;84.08;100638.41;5068035;28;20035;-68
2024/03/04 04:50:11;;;;;;;4.97;3.10;;;;;;;1.85;84.08;100635.84;5067813;28;20061;-68
2024/03/04 04:52:37;;;;;;;6.32;4.43;;;;;;;1.84;84.19;100635.78;5066777;28;20040;-68
2024/03/04 04:55:03;;;;;;;3.83;3.42;;;;;;;1.75;84.49;100656.00;5067709;28;20021;-68
2024/03/04 04:57:28;;;;;;;1.25;1.15;;;;;;;1.71;84.42;100649.94;5066702;28;20092;-68
2024/03/04 04:59:53;;;;;;;5.63;3.35;;;;;;;1.73;84.59;100649.13;5068119;28;20020;-69
2024/03/04 05:02:19;;;;;;;2.65;2.00;;;;;;;1.70;84.75;100653.28;5067785;28;20021;-67
2024/03/04 05:04:44;;;;;;;1.85;1.25;;;;;;;1.64;84.91;100656.53;5067701;28;20025;-67
2024/03/04 05:07:09;;;;;;;5.18;3.10;;;;;;;1.67;85.01;100661.75;5067719;28;20055;-68
2024/03/04 05:09:35;;;;;;;4.82;1.95;;;;;;;1.62;84.99;100665.84;5067298;28;20492;-68
2024/03/04 05:12:00;;;;;;;7.50;2.17;;;;;;;1.63;84.94;100666.72;5067739;28;20028;-69
2024/03/04 05:14:25;;;;;;;3.03;2.45;;;;;;;1.68;84.75;100666.03;5067459;28;20033;-69
2024/03/04 05:16:51;;;;;;;1.52;1.42;;;;;;;1.56;84.99;100663.97;5065761;28;20028;-69
2024/03/04 05:19:17;;;;;;;2.08;1.35;;;;;;;1.56;85.17;100675.88;5066883;28;20017;-69
2024/03/04 05:21:43;;;;;;;6.57;5.43;;;;;;;1.54;85.25;100672.38;5066690;28;20029;-70
2024/03/04 05:24:08;;;;;;;3.05;2.75;;;;;;;1.47;85.41;100664.50;5066065;28;20024;-69
2024/03/04 05:26:34;;;;;;;3.15;2.25;;;;;;;1.51;85.41;100678.28;5067020;28;20035;-70
2024/03/04 05:29:00;;;;;;;2.38;2.13;;;;;;;1.46;85.22;100680.69;5067283;28;20025;-69
2024/03/04 05:31:25;;;;;;;7.68;4.32;;;;;;;1.48;85.49;100680.75;5067249;28;20043;-70
2024/03/04 05:33:50;;;;;;;5.07;2.45;;;;;;;1.47;85.37;100677.31;5067248;28;20025;-68
2024/03/04 05:36:16;;;;;;;1.48;1.38;;;;;;;1.36;85.52;100664.16;5066863;28;20017;-69
2024/03/04 05:38:42;;;;;;;0.95;0.95;;;;;;;1.41;85.59;100682.22;5066897;28;20024;-67
2024/03/04 05:41:07;;;;;;;2.40;1.98;;;;;;;1.39;85.78;100683.00;5065219;28;20025;-68
2024/03/04 05:43:32;;;;;;;4.00;3.70;;;;;;;1.44;85.39;100687.44;5067181;28;20104;-68
2024/03/04 05:45:58;;;;;;;10.35;3.70;;;;;;;1.44;85.45;100701.91;5067193;28;20021;-68
2024/03/04 05:48:24;;;;;;;3.58;2.05;;;;;;;1.39;85.57;100698.34;5065694;28;20143;-68
2024/03/04 05:50:49;;;;;;;3.58;2.88;;;;;;;1.37;85.66;100703.41;5067159;28;20070;-68
2024/03/04 05:53:20;;;;;;;4.65;2.80;;;;;;;1.42;85.58;100719.78;5067052;28;20025;-68
2024/03/04 05:55:45;;;;;;;5.40;4.30;;;;;;;1.42;85.61;100713.81;5066656;28;20021;-68
2024/03/04 05:58:10;;;;;;;4.05;3.75;;;;;;;1.41;85.27;100718.03;5065353;28;20089;-69
2024/03/04 06:00:36;;;;;;;5.10;3.63;;;;;;;1.37;85.60;100721.31;5066022;28;20017;-68
2024/03/04 06:03:01;;;;;;;1.00;0.98;;;;;;;1.34;85.79;100722.06;5065901;28;20071;-68
2024/03/04 06:05:27;;;;;;;0.93;0.93;;;;;;;1.22;85.67;100704.63;5065428;28;20021;-67
2024/03/04 06:07:57;;;;;;;2.20;1.65;;;;;;;1.34;85.66;100726.34;5065421;28;20025;-69
2024/03/04 06:10:22;;;;;;;8.63;2.70;;;;;;;1.35;85.58;100725.50;5066721;28;20031;-68
2024/03/04 06:12:47;;;;;;;3.45;1.33;;;;;;;1.36;85.82;100740.03;5066829;28;20021;-67
2024/03/04 06:15:13;;;;;;;4.20;3.78;;;;;;;1.32;85.69;100735.63;5066585;28;20487;-67
2024/03/04 06:17:38;;;;;;;4.20;2.95;;;;;;;1.32;85.81;100733.06;5066489;28;20032;-67
2024/03/04 06:20:09;;;;;;;3.53;3.22;;;;;;;1.32;85.90;100750.97;5066734;28;20059;-68
2024/03/04 06:22:35;;;;;;;2.47;2.03;;;;;;;1.30;85.92;100750.03;5066404;28;20029;-68
2024/03/04 06:25:01;;;;;;;4.30;2.25;;;;;;;1.33;86.12;100752.72;5064821;28;20056;-68
2024/03/04 06:27:26;;;;;;;8.45;3.47;;;;;;;1.28;85.94;100752.56;5066261;28;20021;-69
2024/03/04 06:29:51;;;;;;;6.65;3.42;;;;;;;1.30;86.07;100750.03;5063658;28;20033;-67
2024/03/04 06:32:17;;;;;;;3.88;2.42;;;;;;;1.28;86.17;100752.56;5066371;28;20105;-67
2024/03/04 06:34:42;;;;;;;5.50;4.20;;;;;;;1.31;86.25;100767.16;5066153;28;20028;-67
2024/03/04 06:37:07;;;;;;;3.95;2.38;;;;;;;1.31;86.31;100756.94;5066172;28;20029;-68
2024/03/04 06:39:34;;;;;;;1.48;1.38;;;;;;;1.31;86.26;100755.22;5064691;28;20021;-68
2024/03/04 06:41:59;;;;;;;7.63;2.72;;;;;;;1.46;86.13;100770.25;5066203;28;20025;-68
2024/03/04 06:44:24;;;;;;;3.13;2.63;;;;;;;1.53;86.64;100757.66;5064627;28;20032;-68
2024/03/04 06:46:50;;;;;;;18.48;7.43;;;;;;;1.88;86.54;100780.16;5066030;28;20029;-64
2024/03/04 06:49:16;;;;;;;3.13;2.00;;;;;;;2.14;86.70;100783.56;5065707;28;20052;-64
2024/03/04 06:51:41;;;;;;;6.30;4.43;;;;;;;2.41;86.49;100777.56;5065981;28;20104;-65
2024/03/04 06:54:10;;;;;;;6.65;4.10;;;;;;;2.72;85.49;100799.03;5065622;28;20028;-64
2024/03/04 06:56:36;;;;;;;2.72;2.58;;;;;;;2.89;84.72;100790.09;5065902;28;20039;-66
2024/03/04 06:59:01;;;;;;;4.18;3.80;;;;;;;2.95;84.80;100785.16;5064368;28;20021;-66
2024/03/04 07:01:27;;;;;;;4.97;4.05;;;;;;;3.21;84.46;100788.44;5065831;28;20028;-66
2024/03/04 07:03:53;;;;;;;4.25;3.88;;;;;;;3.29;83.67;100786.09;5065466;28;20035;-66
2024/03/04 07:06:21;;;;;;;5.63;3.25;;;;;;;3.40;83.17;100785.53;5065790;28;20055;-66
2024/03/04 07:08:47;;;;;;;4.57;3.70;;;;;;;3.63;82.65;100795.53;5065267;28;20025;-64
2024/03/04 07:11:13;;;;;;;4.50;3.78;;;;;;;3.84;81.91;100792.66;5064074;28;20021;-65
2024/03/04 07:13:38;;;;;;;5.43;3.28;;;;;;;4.04;80.75;100812.88;5064247;28;20461;-65
2024/03/04 07:16:07;;;;;;;4.75;4.25;;;;;;;4.15;80.31;100808.88;5065386;28;20036;-65
2024/03/04 07:18:33;;;;;;;3.88;3.33;;;;;;;4.37;79.45;100801.66;5065183;28;20080;-66
2024/03/04 07:20:58;;;;;;;5.80;2.60;;;;;;;4.46;77.74;100806.13;5065393;28;20071;-65
2024/03/04 07:23:24;;;;;;;3.33;2.72;;;;;;;4.53;76.15;100815.75;5065368;28;20481;-66
2024/03/04 07:25:50;;;;;;;4.20;3.45;;;;;;;4.53;76.38;100807.16;5065344;28;20025;-66
2024/03/04 07:28:15;;;;;;;9.82;3.47;;;;;;;4.69;75.95;100818.66;5065485;28;20017;-66
2024/03/04 07:30:40;;;;;;;5.68;2.67;;;;;;;4.83;75.58;100816.41;5065493;28;20525;-67
2024/03/04 07:33:08;;;;;;;4.13;1.95;;;;;;;4.85;75.14;100812.16;5065414;28;20021;-66
2024/03/04 07:35:34;;;;;;;5.85;4.60;;;;;;;4.79;74.34;100810.31;5063737;28;20081;-66
2024/03/04 07:37:59;;;;;;;2.83;2.53;;;;;;;4.69;73.97;100810.94;5063863;28;20112;-65
2024/03/04 07:40:25;;;;;;;11.02;4.85;;;;;;;4.68;74.53;100827.22;5063456;28;20028;-67
2024/03/04 07:42:50;;;;;;;4.72;3.03;;;;;;;4.77;74.11;100832.56;5065274;28;20024;-65
2024/03/04 07:45:16;;;;;;;7.32;3.95;;;;;;;4.82;74.17;100824.97;5065039;28;20055;-66
2024/03/04 07:47:41;;;;;;;10.80;5.65;;;;;;;4.91;73.71;100835.44;5063941;28;20032;-65
2024/03/04 07:50:07;;;;;;;6.13;2.80;;;;;;;4.93;73.84;100818.34;5064861;28;20398;-66
2024/03/04 07:52:33;;;;;;;3.70;3.40;;;;;;;5.16;72.62;100846.25;5065020;28;20048;-66
2024/03/04 07:54:58;;;;;;;5.68;2.30;;;;;;;5.17;72.57;100842.00;5064874;28;20432;-65
2024/03/04 07:57:24;;;;;;;3.97;2.20;;;;;;;5.20;72.04;100837.78;5065134;28;20025;-65
2024/03/04 07:59:49;;;;;;;2.35;1.83;;;;;;;5.27;70.76;100855.94;5064999;28;20029;-65
2024/03/04 08:02:15;;;;;;;2.53;2.33;;;;;;;5.28;70.28;100855.97;5063693;28;20090;-66
2024/03/04 08:04:45;;;;;;;3.25;2.50;;;;;;;5.25;70.65;100847.28;5064950;28;20036;-66
2024/03/04 08:07:11;;;;;;;2.05;1.90;;;;;;;5.25;69.87;100849.88;5064945;28;20044;-65
2024/03/04 08:09:36;;;;;;;9.70;6.28;;;;;;;5.38;69.43;100859.59;5063216;28;20029;-65
2024/03/04 08:12:04;;;;;;;2.67;1.58;;;;;;;5.50;68.88;100874.41;5064983;28;20184;-66
2024/03/04 08:14:29;;;;;;;3.60;3.05;;;;;;;5.48;68.31;100878.66;5064960;28;20021;-66
2024/03/04 08:16:54;;;;;;;5.10;3.33;;;;;;;5.42;68.51;100869.09;5064871;28;20021;-66
2024/03/04 08:19:21;;;;;;;3.25;2.95;;;;;;;5.60;66.25;100856.56;5064862;28;20013;-65
2024/03/04 08:21:47;;;;;;;3.08;2.78;;;;;;;5.55;68.29;100866.78;5063704;28;20092;-65
2024/03/04 08:24:12;;;;;;;6.05;3.75;;;;;;;5.77;68.70;100862.03;5064829;28;20408;-66
2024/03/04 08:26:38;;;;;;;4.88;1.50;;;;;;;5.84;66.19;100863.91;5064938;28;20029;-65
2024/03/04 08:29:03;;;;;;;2.42;2.15;;;;;;;5.87;65.64;100879.41;5064645;28;20024;-64
2024/03/04 08:31:29;;;;;;;4.50;2.85;;;;;;;5.90;65.99;100884.63;5063351;28;20024;-66
2024/03/04 08:33:55;;;;;;;7.20;3.78;;;;;;;5.87;65.44;100860.50;5071056;23;20033;-64
2024/03/04 08:36:21;;;;;;;2.83;2.13;;;;;;;6.18;65.82;100876.56;5063331;28;20065;-65
2024/03/04 08:38:47;;;;;;;2.72;2.53;;;;;;;6.32;65.46;100875.09;5063571;28;20389;-64
2024/03/04 08:41:13;;;;;;;2.08;1.48;;;;;;;6.52;64.06;100887.44;5046448;28;20021;-64
2024/03/04 08:43:40;;;;;;;5.15;4.25;;;;;;;6.43;64.62;100892.44;5064617;28;20090;-64
2024/03/04 08:46:05;;;;;;;5.07;3.47;;;;;;;6.57;63.53;100890.97;5064583;22;20113;-64
2024/03/04 08:48:30;;;;;;;7.32;2.95;;;;;;;6.56;63.68;100904.72;5025416;28;20093;-65
2024/03/04 08:50:56;;;;;;;3.88;3.53;;;;;;;6.70;63.38;100898.88;5043647;28;20026;-65
2024/03/04 08:53:22;;;;;;;2.53;2.28;;;;;;;6.80;63.61;100899.91;5046781;28;20048;-65
2024/03/04 08:55:48;;;;;;;6.32;4.32;;;;;;;7.01;63.02;100916.56;5048296;28;20024;-65
2024/03/04 08:58:13;;;;;;;6.03;3.25;;;;;;;7.03;62.54;100895.06;5048299;28;20057;-65
2024/03/04 09:00:38;;;;;;;4.30;2.25;;;;;;;7.21;62.39;100910.78;5048182;28;20025;-65
2024/03/04 09:03:05;;;;;;;4.30;3.05;;;;;;;7.29;61.96;100906.59;5048197;28;20028;-65
2024/03/04 09:05:31;;;;;;;1.25;1.15;;;;;;;7.44;61.24;100888.69;5048312;28;20026;-66
2024/03/04 09:07:59;;;;;;;6.70;2.55;;;;;;;7.47;59.90;100890.47;5048149;28;20021;-64
2024/03/04 09:10:24;;;;;;;4.28;3.42;;;;;;;7.35;61.40;100901.50;5047836;28;20021;-65
2024/03/04 09:12:50;;;;;;;5.25;3.33;;;;;;;7.57;60.05;100917.31;5047864;28;20048;-65
2024/03/04 09:15:16;;;;;;;2.20;1.92;;;;;;;7.53;59.34;100908.63;5047919;28;20022;-65
2024/03/04 09:17:42;;;;;;;1.83;1.48;;;;;;;7.45;59.84;100907.66;5047941;28;20051;-65
2024/03/04 09:20:08;;;;;;;3.13;2.78;;;;;;;7.39;59.78;100912.75;5047832;28;20133;-64
2024/03/04 09:22:34;;;;;;;5.20;3.40;;;;;;;7.38;60.46;100898.13;5047916;28;20032;-64
2024/03/04 09:24:59;;;;;;;3.05;1.30;;;;;;;7.63;59.92;100907.03;5047681;28;20026;-64
2024/03/04 09:27:25;;;;;;;6.75;2.63;;;;;;;7.77;59.53;100917.53;5047888;28;20022;-65
2024/03/04 09:29:50;;;;;;;4.53;2.35;;;;;;;7.88;58.34;100911.59;5047458;28;20025;-64
2024/03/04 09:32:15;;;;;;;2.70;1.50;;;;;;;7.91;57.93;100907.34;5047707;28;20470;-64
2024/03/04 09:34:42;;;;;;;2.47;2.20;;;;;;;7.72;58.32;100923.47;5047671;28;20021;-65
2024/03/04 09:37:07;;;;;;;2.53;2.08;;;;;;;7.66;58.62;100922.59;5047522;28;20036;-64
2024/03/04 09:39:33;;;;;;;4.35;2.55;;;;;;;7.72;59.01;100907.97;5047460;28;20021;-65
2024/03/04 09:41:58;;;;;;;5.03;3.17;;;;;;;7.85;59.25;100909.84;5047470;28;20025;-64
2024/03/04 09:44:27;;;;;;;8.15;3.58;;;;;;;7.98;59.17;100917.75;5047399;28;20546;-66
2024/03/04 09:46:53;;;;;;;8.52;3.63;;;;;;;8.16;59.67;100922.25;5046947;28;20041;-64
2024/03/04 09:49:21;;;;;;;2.42;2.22;;;;;;;8.30;58.06;100914.63;5047068;28;20164;-64
2024/03/04 09:51:49;;;;;;;4.78;2.78;;;;;;;8.36;56.71;100931.91;5047236;28;20026;-64
2024/03/04 09:54:15;;;;;;;3.28;2.50;;;;;;;8.36;55.92;100918.97;5047308;28;20021;-64
2024/03/04 09:56:40;;;;;;;4.78;2.47;;;;;;;8.27;55.58;100917.19;5047054;28;20432;-64
2024/03/04 09:59:05;;;;;;;2.10;1.92;;;;;;;8.25;54.86;100936.97;5046879;28;20502;-64
2024/03/04 10:01:32;;;;;;;1.95;1.48;;;;;;;8.15;55.49;100936.88;5045952;28;20017;-64
2024/03/04 10:03:58;;;;;;;8.63;3.20;;;;;;;8.33;54.17;100919.81;5046303;28;20081;-65
2024/03/04 10:06:23;;;;;;;1.95;1.48;;;;;;;8.21;55.16;100922.28;5046962;28;20025;-64
2024/03/04 10:08:49;;;;;;;1.80;1.70;;;;;;;8.52;53.02;100951.03;5046958;28;20021;-64
2024/03/04 10:11:14;;;;;;;2.67;1.95;;;;;;;8.39;53.44;100942.28;5046788;28;20025;-64
2024/03/04 10:13:41;;;;;;;4.55;2.63;;;;;;;8.52;52.47;100938.97;5046844;28;20053;-64
2024/03/04 10:16:13;;;;;;;2.10;1.92;;;;;;;8.71;52.01;100961.56;5062574;23;20109;-65
2024/03/04 10:18:38;;;;;;;3.97;2.05;;;;;;;8.84;52.15;100954.75;5081602;22;20053;-67
2024/03/04 10:21:04;;;;;;;4.45;2.65;;;;;;;9.17;52.07;100945.50;5081080;28;20020;-68
2024/03/04 10:23:29;;;;;;;11.90;4.53;;;;;;;9.51;50.28;100973.31;5085678;28;20060;-67
2024/03/04 10:26:10;;;;;;;1.67;1.50;;;;;;;9.36;49.65;100962.00;5086525;28;20203;-66
2024/03/04 10:28:39;;;;;;;2.10;1.75;;;;;;;9.21;49.66;100960.22;5086426;28;20024;-67
2024/03/04 10:31:12;;;;;;;4.75;3.58;;;;;;;8.77;50.32;100970.25;5068324;28;20115;-67
2024/03/04 10:33:40;;;;;;;2.58;1.52;;;;;;;8.71;50.40;100965.03;5086562;28;20020;-67
2024/03/04 10:36:16;;;;;;;2.78;1.92;;;;;;;8.69;51.25;100969.31;5086393;28;20021;-67
2024/03/04 10:38:44;;;;;;;4.10;2.65;;;;;;;8.68;51.64;100970.19;5086481;28;20020;-68
2024/03/04 10:41:20;;;;;;;3.05;2.75;;;;;;;8.93;50.36;100966.06;5086215;28;20017;-67
2024/03/04 10:43:46;;;;;;;2.35;1.85;;;;;;;8.60;50.24;100967.53;5085870;28;20033;-67
2024/03/04 10:46:14;;;;;;;4.15;2.72;;;;;;;8.45;50.42;100960.44;5106847;23;20080;-63
2024/03/04 10:48:41;;;;;;;7.40;2.63;;;;;;;8.51;51.33;100957.06;5104961;28;20024;-64
2024/03/04 10:51:07;;;;;;;3.47;2.00;;;;;;;8.82;51.15;100965.09;5105791;28;20032;-64
2024/03/04 10:53:35;;;;;;;3.72;3.00;;;;;;;9.12;50.67;100978.28;5106228;28;20356;-65
2024/03/04 10:56:05;;;;;;;1.67;1.58;;;;;;;9.46;48.61;100975.00;5106038;28;20081;-65
2024/03/04 10:58:37;;;;;;;4.25;1.90;;;;;;;9.12;49.16;100976.53;5109645;22;20044;-64
2024/03/04 11:01:10;;;;;;;2.83;2.17;;;;;;;9.17;49.94;100967.09;5105064;28;20030;-65
2024/03/04 11:03:46;;;;;;;1.10;1.10;;;;;;;9.54;48.67;100976.81;5105046;28;20083;-65
2024/03/04 11:06:18;;;;;;;7.72;3.90;;;;;;;9.58;48.83;100964.72;5106120;28;20031;-64
2024/03/04 11:08:51;;;;;;;4.40;1.98;;;;;;;9.76;48.08;100969.13;5104708;28;20024;-65
2024/03/04 11:11:22;;;;;;;2.63;1.60;;;;;;;9.77;48.73;100972.59;5105847;28;20027;-65
2024/03/04 11:14:03;;;;;;;4.72;2.50;;;;;;;10.01;47.98;100965.75;5105997;28;20412;-65
2024/03/04 11:16:46;;;;;;;1.63;1.43;;;;;;;10.06;47.76;100976.13;5105422;28;20058;-66
2024/03/04 11:19:20;;;;;;;4.88;3.05;;;;;;;10.18;47.85;100958.00;5105822;28;20031;-65
2024/03/04 11:21:46;;;;;;;3.92;3.35;;;;;;;10.60;46.89;100965.88;5105815;28;20379;-65
2024/03/04 11:24:13;;;;;;;3.00;2.47;;;;;;;10.98;46.67;100968.47;5105846;28;20027;-65
2024/03/04 11:26:41;;;;;;;2.63;2.22;;;;;;;11.35;44.34;100970.13;5105692;28;20424;-65